Rossville, Pennsylvania
Current Conditions -  °F | °C
As of 4:53 AM on Thursday 27 Nov 2014 (Local Time) from KTHV Reporting Station
Clear Clear  
Wind Chill: 30°   Ceiling: Unl
Heat Index: 30°   Visibility: 9mi
Dew Point: 28°   Wind: 3mph
Humidity: 92%   Direction: 300°WNW
Pressure: 29.98"   Gusts: NA
Location:  40.06°N, 76.91°W
Report Text: KTHV 270953Z AUTO 30003KT 9SM CLR M01/M02 A2998 RMK AO2 SLP161 T10111022
Loading
Personal Weather Stations






























Interactive Weather Map New forecast layout! Learn more

10-Day Weather Forecast

Advertisements
Track Severe Weather on mobile